CBH7 weather

Benalto/Hillmans Farm Airport
Alberta, Canada

Public forecast

Using degrees Celsius for public forecast. Weather courtesy of forecast.io.

METAR (pilot weather report)

Closest report is Red Deer Regional Airport, 13.6 nm (25.2 km) ESE. Retrieved 2019/07/17 05:00 UTC (46 minutes ago):

CYQF 170500Z 15004KT 15SM FEW100 FEW260 12/11 A2985 RMK AC1CI1 SLP122 DENSITY ALT 3500FT

TAF (pilot weather forecast)

Forecast is more than 12 hours old.

Closest forecast is Red Deer Regional Airport, 13.6 nm (25.2 km) ESE. Retrieved 2019/07/16 00:48 UTC (1 day ago):

TAF CYQF 162344Z 1700/1712 VRB03KT P6SM SCT030 SCT250 TEMPO 1700/1705 P6SM VCSH BKN030 BKN250 FM170500 18006KT P6SM FEW030 PROB30 1709/1712 1SM BR RMK NXT FCST BY 170600Z